Time;durP1;ratioP1;P1;durP2;ratioP2;P2;SDS_P1;SDS_P2;PMS_P1;PMS_P2;Temp;Humidity;BMP_temperature;BMP_pressure;BME280_temperature;BME280_humidity;BME280_pressure;Samples;Min_cycle;Max_cycle;Signal;HPM_P1;HPM_P2
2021/06/13 00:00:28;;;;;;;4.05;1.48;;;;;;;;;;5016120;28;20025;-78
2021/06/13 00:02:53;;;;;;;2.50;1.20;;;;;;;;;;5015212;28;20126;-78
2021/06/13 00:05:19;;;;;;;3.90;1.73;;;;;;;;;;4998400;28;20068;-78
2021/06/13 00:07:44;;;;;;;4.00;1.60;;;;;;;;;;5014805;28;20057;-78
2021/06/13 00:10:11;;;;;;;2.33;1.50;;;;;;;;;;5032502;28;20184;-78
2021/06/13 00:12:36;;;;;;;3.20;1.50;;;;;;;;;;5018929;28;20041;-78
2021/06/13 00:15:03;;;;;;;2.70;1.38;;;;;;;;;;4999278;28;20033;-78
2021/06/13 00:17:29;;;;;;;4.05;2.08;;;;;;;;;;5015497;28;20037;-78
2021/06/13 00:19:54;;;;;;;4.00;1.45;;;;;;;;;;5014973;28;20116;-78
2021/06/13 00:22:20;;;;;;;3.38;1.55;;;;;;;;;;4998985;28;20033;-78
2021/06/13 00:24:45;;;;;;;3.58;1.65;;;;;;;;;;4999388;28;20041;-78
2021/06/13 00:27:11;;;;;;;3.65;1.40;;;;;;;;;;4998635;28;20048;-78
2021/06/13 00:29:36;;;;;;;3.30;1.60;;;;;;;;;;5031525;28;20029;-78
2021/06/13 00:32:02;;;;;;;2.60;1.25;;;;;;;;;;5015259;28;20037;-78
2021/06/13 00:34:27;;;;;;;3.35;1.30;;;;;;;;;;5015400;28;20050;-78
2021/06/13 00:36:53;;;;;;;3.83;1.52;;;;;;;;;;5014520;28;20071;-78
2021/06/13 00:39:19;;;;;;;3.10;1.30;;;;;;;;;;4998465;28;20033;-78
2021/06/13 00:41:44;;;;;;;3.72;1.48;;;;;;;;;;5001988;28;20107;-78
2021/06/13 00:44:10;;;;;;;2.28;1.60;;;;;;;;;;5018465;28;20043;-78
2021/06/13 00:46:35;;;;;;;5.15;1.55;;;;;;;;;;5034803;28;20053;-78
2021/06/13 00:49:00;;;;;;;3.38;1.77;;;;;;;;;;5011452;28;20068;-78
2021/06/13 00:51:27;;;;;;;2.88;1.75;;;;;;;;;;5014830;28;20036;-78
2021/06/13 00:53:52;;;;;;;3.03;1.90;;;;;;;;;;4998547;28;20594;-78
2021/06/13 00:56:17;;;;;;;4.43;1.85;;;;;;;;;;5015053;28;20029;-78
2021/06/13 00:58:43;;;;;;;3.00;1.33;;;;;;;;;;5013884;28;20037;-78
2021/06/13 01:01:08;;;;;;;4.30;1.38;;;;;;;;;;5014857;28;20041;-78
2021/06/13 01:03:34;;;;;;;2.95;1.80;;;;;;;;;;5014563;28;20041;-78
2021/06/13 01:05:59;;;;;;;4.32;1.65;;;;;;;;;;5014324;28;20066;-78
2021/06/13 01:08:52;;;;;;;4.13;1.50;;;;;;;;;;5015216;28;20888;-79
2021/06/13 01:11:27;;;;;;;;;;;;;;;;;;5031291;28;20022;-78
2021/06/13 01:14:29;;;;;;;3.38;1.60;;;;;;;;;;5030484;28;19919;-78
2021/06/13 01:17:17;;;;;;;2.65;1.40;;;;;;;;;;5031108;28;20030;-78
2021/06/13 01:19:51;;;;;;;2.90;1.33;;;;;;;;;;5016808;28;20065;-78
2021/06/13 01:22:32;;;;;;;2.65;1.60;;;;;;;;;;5031369;28;20387;-78
2021/06/13 01:25:34;;;;;;;2.15;1.50;;;;;;;;;;5047037;28;20100;-78
2021/06/13 01:28:25;;;;;;;3.75;1.80;;;;;;;;;;5010695;28;20496;-78
2021/06/13 01:30:52;;;;;;;3.17;1.73;;;;;;;;;;4990579;28;20500;-78
2021/06/13 01:33:17;;;;;;;3.30;1.40;;;;;;;;;;5009742;28;20125;-78
2021/06/13 01:35:43;;;;;;;4.05;1.70;;;;;;;;;;4996523;28;20515;-78
2021/06/13 01:38:10;;;;;;;2.85;1.50;;;;;;;;;;5014323;28;20509;-78
2021/06/13 01:40:36;;;;;;;2.67;1.73;;;;;;;;;;5013497;28;20080;-78
2021/06/13 01:43:02;;;;;;;3.38;1.48;;;;;;;;;;5029545;28;20032;-79
2021/06/13 01:45:33;;;;;;;3.70;1.60;;;;;;;;;;5033430;28;20090;-78
2021/06/13 01:48:02;;;;;;;2.58;1.48;;;;;;;;;;5002394;28;20120;-78
2021/06/13 01:50:29;;;;;;;2.88;1.38;;;;;;;;;;4998670;28;20151;-78
2021/06/13 01:52:56;;;;;;;3.53;1.52;;;;;;;;;;5010047;28;20504;-78
2021/06/13 01:55:21;;;;;;;3.63;1.77;;;;;;;;;;4978114;28;20488;-78
2021/06/13 01:57:47;;;;;;;2.70;1.75;;;;;;;;;;4977926;28;20108;-78
2021/06/13 02:00:13;;;;;;;3.28;1.63;;;;;;;;;;4994757;28;20438;-78
2021/06/13 02:02:40;;;;;;;3.33;1.30;;;;;;;;;;4994021;28;20037;-78
2021/06/13 02:05:06;;;;;;;3.50;1.30;;;;;;;;;;4993899;28;20060;-78
2021/06/13 02:07:35;;;;;;;4.15;2.13;;;;;;;;;;4977649;28;20484;-78
2021/06/13 02:10:02;;;;;;;2.78;1.60;;;;;;;;;;4994058;28;20095;-78
2021/06/13 02:12:27;;;;;;;3.17;1.48;;;;;;;;;;4993194;28;20453;-77
2021/06/13 02:14:53;;;;;;;3.25;1.85;;;;;;;;;;5013372;28;20120;-78
2021/06/13 02:17:18;;;;;;;3.78;1.63;;;;;;;;;;5013508;28;20036;-78
2021/06/13 02:19:44;;;;;;;3.92;1.40;;;;;;;;;;5025292;28;20025;-78
2021/06/13 02:22:14;;;;;;;3.60;1.67;;;;;;;;;;4997224;28;20044;-78
2021/06/13 02:24:40;;;;;;;3.50;1.83;;;;;;;;;;5013918;28;20025;-77
2021/06/13 02:27:07;;;;;;;4.18;1.40;;;;;;;;;;4995853;28;20037;-78
2021/06/13 02:29:33;;;;;;;3.42;1.63;;;;;;;;;;5013466;28;20029;-78
2021/06/13 02:31:58;;;;;;;2.88;1.83;;;;;;;;;;5013292;28;20056;-78
2021/06/13 02:34:29;;;;;;;3.10;1.48;;;;;;;;;;5013652;28;20112;-78
2021/06/13 02:36:56;;;;;;;3.22;1.52;;;;;;;;;;5013680;28;20044;-78
2021/06/13 02:39:22;;;;;;;3.13;1.65;;;;;;;;;;5013406;28;20387;-78
2021/06/13 02:41:48;;;;;;;3.88;1.60;;;;;;;;;;5014745;28;20044;-78
2021/06/13 02:44:14;;;;;;;3.83;1.52;;;;;;;;;;4999314;28;20114;-78
2021/06/13 02:46:39;;;;;;;2.90;1.77;;;;;;;;;;5016767;28;20033;-79
2021/06/13 02:49:07;;;;;;;2.88;1.63;;;;;;;;;;5016755;28;20037;-78
2021/06/13 02:51:36;;;;;;;3.47;1.90;;;;;;;;;;5000786;28;20103;-79
2021/06/13 02:54:07;;;;;;;4.05;1.77;;;;;;;;;;5016711;28;20040;-78
2021/06/13 02:56:42;;;;;;;3.28;2.00;;;;;;;;;;5000332;28;20040;-78
2021/06/13 02:59:40;;;;;;;3.75;1.63;;;;;;;;;;5001163;28;20029;-78
2021/06/13 03:02:11;;;;;;;5.53;2.00;;;;;;;;;;5033013;28;20097;-78
2021/06/13 03:04:36;;;;;;;3.53;1.73;;;;;;;;;;5016740;28;20049;-78
2021/06/13 03:07:02;;;;;;;3.08;1.77;;;;;;;;;;5016733;28;20107;-78
2021/06/13 03:09:29;;;;;;;3.88;1.85;;;;;;;;;;5016300;28;20092;-78
2021/06/13 03:11:55;;;;;;;2.33;1.42;;;;;;;;;;5000425;28;20104;-78
2021/06/13 03:14:22;;;;;;;2.65;1.70;;;;;;;;;;5000190;28;20131;-79
2021/06/13 03:16:47;;;;;;;3.00;1.77;;;;;;;;;;5016388;28;20029;-78
2021/06/13 03:19:13;;;;;;;3.72;2.05;;;;;;;;;;5016017;28;20387;-78
2021/06/13 03:21:38;;;;;;;5.70;1.80;;;;;;;;;;5016396;28;20034;-78
2021/06/13 03:24:05;;;;;;;3.17;1.90;;;;;;;;;;4999954;28;20056;-78
2021/06/13 03:26:30;;;;;;;2.45;1.33;;;;;;;;;;4999895;28;20044;-78
2021/06/13 03:28:57;;;;;;;4.40;2.63;;;;;;;;;;5016756;28;20037;-78
2021/06/13 03:31:23;;;;;;;2.80;1.65;;;;;;;;;;5016024;28;20029;-78
2021/06/13 03:33:48;;;;;;;3.42;2.15;;;;;;;;;;5012451;28;20477;-79
2021/06/13 03:36:15;;;;;;;4.15;1.67;;;;;;;;;;5029405;28;20022;-78
2021/06/13 03:38:41;;;;;;;3.05;1.90;;;;;;;;;;5012858;28;20045;-78
2021/06/13 03:41:06;;;;;;;2.65;1.77;;;;;;;;;;5015499;28;20042;-78
2021/06/13 03:43:32;;;;;;;4.38;2.50;;;;;;;;;;4983864;28;20060;-78
2021/06/13 03:45:57;;;;;;;3.08;2.15;;;;;;;;;;4999127;28;20044;-78
2021/06/13 03:48:23;;;;;;;3.25;2.03;;;;;;;;;;5016075;28;20069;-78
2021/06/13 03:50:48;;;;;;;5.43;2.38;;;;;;;;;;5000219;28;20037;-78
2021/06/13 03:53:16;;;;;;;3.80;2.38;;;;;;;;;;4999628;28;20396;-78
2021/06/13 03:55:41;;;;;;;3.00;1.77;;;;;;;;;;5014786;28;20112;-78
2021/06/13 03:58:08;;;;;;;4.30;1.90;;;;;;;;;;4998967;28;20396;-78
2021/06/13 04:00:33;;;;;;;3.10;1.85;;;;;;;;;;5015434;28;20038;-78
2021/06/13 04:02:59;;;;;;;4.90;2.15;;;;;;;;;;5015803;28;20044;-79
2021/06/13 04:05:25;;;;;;;5.15;1.63;;;;;;;;;;5015985;28;20029;-78
2021/06/13 04:07:50;;;;;;;3.47;2.00;;;;;;;;;;5015545;28;20034;-78
2021/06/13 04:10:17;;;;;;;7.05;2.20;;;;;;;;;;5015901;28;20029;-78
2021/06/13 04:12:46;;;;;;;4.15;2.00;;;;;;;;;;4999455;28;20033;-78
2021/06/13 04:15:12;;;;;;;3.85;2.03;;;;;;;;;;5013647;28;20064;-77
2021/06/13 04:17:38;;;;;;;5.07;1.90;;;;;;;;;;5015133;28;20531;-78
2021/06/13 04:20:04;;;;;;;3.40;1.90;;;;;;;;;;4999232;28;20032;-78
2021/06/13 04:22:30;;;;;;;3.40;1.77;;;;;;;;;;5015205;28;20033;-78
2021/06/13 04:24:55;;;;;;;3.20;2.00;;;;;;;;;;4998584;28;20395;-78
2021/06/13 04:27:22;;;;;;;3.88;1.85;;;;;;;;;;5014851;28;20045;-78
2021/06/13 04:29:48;;;;;;;3.50;1.83;;;;;;;;;;5014668;28;20037;-77
2021/06/13 04:32:13;;;;;;;2.67;1.90;;;;;;;;;;4998777;28;20033;-78
2021/06/13 04:34:39;;;;;;;4.15;2.15;;;;;;;;;;5014922;28;20037;-78
2021/06/13 04:37:05;;;;;;;3.30;1.92;;;;;;;;;;5015103;28;20033;-78
2021/06/13 04:39:31;;;;;;;2.88;1.80;;;;;;;;;;5014843;28;20495;-78
2021/06/13 04:41:57;;;;;;;2.83;2.00;;;;;;;;;;4997937;28;20044;-78
2021/06/13 04:44:22;;;;;;;3.15;1.83;;;;;;;;;;4998391;28;20030;-78
2021/06/13 04:46:48;;;;;;;3.72;2.13;;;;;;;;;;5014560;28;20548;-78
2021/06/13 04:49:13;;;;;;;3.25;1.98;;;;;;;;;;5004753;28;20034;-78
2021/06/13 04:51:39;;;;;;;3.80;2.20;;;;;;;;;;5015012;28;20026;-78
2021/06/13 04:54:24;;;;;;;3.72;1.80;;;;;;;;;;5014678;28;20100;-78
2021/06/13 04:57:01;;;;;;;3.25;1.67;;;;;;;;;;5047738;28;20045;-78
2021/06/13 04:59:27;;;;;;;3.47;1.75;;;;;;;;;;5047743;28;20041;-78
2021/06/13 05:01:52;;;;;;;3.90;2.00;;;;;;;;;;4998827;28;20368;-78
2021/06/13 05:04:18;;;;;;;3.78;2.03;;;;;;;;;;5014607;28;20143;-78
2021/06/13 05:06:43;;;;;;;3.17;1.77;;;;;;;;;;4998059;28;20025;-78
2021/06/13 05:09:09;;;;;;;3.10;2.00;;;;;;;;;;5006441;28;20057;-78
2021/06/13 05:11:34;;;;;;;3.38;1.90;;;;;;;;;;5014307;28;20108;-79
2021/06/13 05:14:00;;;;;;;4.22;2.80;;;;;;;;;;4998060;28;20025;-78
2021/06/13 05:16:26;;;;;;;3.95;2.03;;;;;;;;;;5027203;28;20546;-78
2021/06/13 05:18:52;;;;;;;3.97;2.30;;;;;;;;;;5029305;28;20068;-79
2021/06/13 05:21:18;;;;;;;4.68;2.28;;;;;;;;;;5030979;28;20033;-78
2021/06/13 05:23:43;;;;;;;5.05;2.13;;;;;;;;;;5014401;28;20036;-78
2021/06/13 05:26:09;;;;;;;4.13;2.05;;;;;;;;;;5014281;28;20037;-78
2021/06/13 05:28:34;;;;;;;6.20;2.38;;;;;;;;;;5030090;28;20083;-78
2021/06/13 05:31:00;;;;;;;3.28;1.92;;;;;;;;;;5013839;28;20029;-78
2021/06/13 05:33:25;;;;;;;6.20;2.25;;;;;;;;;;5013947;28;20030;-78
2021/06/13 05:35:51;;;;;;;3.78;2.13;;;;;;;;;;5014090;28;20053;-78
2021/06/13 05:38:17;;;;;;;4.22;2.22;;;;;;;;;;5030571;28;20104;-78
2021/06/13 05:40:42;;;;;;;3.33;1.95;;;;;;;;;;5030035;28;20030;-78
2021/06/13 05:43:08;;;;;;;14.23;2.47;;;;;;;;;;5013707;28;20034;-78
2021/06/13 05:45:34;;;;;;;6.85;1.90;;;;;;;;;;5030751;28;20112;-78
2021/06/13 05:47:59;;;;;;;6.10;2.45;;;;;;;;;;5030816;28;20022;-77
2021/06/13 05:50:25;;;;;;;6.47;2.20;;;;;;;;;;5030003;28;20037;-77
2021/06/13 05:52:51;;;;;;;6.88;2.45;;;;;;;;;;4997563;28;20128;-77
2021/06/13 05:55:17;;;;;;;11.73;2.83;;;;;;;;;;5011787;28;20038;-76
2021/06/13 05:57:44;;;;;;;7.63;2.55;;;;;;;;;;5011188;28;20029;-76
2021/06/13 06:00:14;;;;;;;7.82;2.80;;;;;;;;;;5012431;28;20033;-76
2021/06/13 06:02:40;;;;;;;8.48;2.47;;;;;;;;;;5029240;28;20033;-76
2021/06/13 06:05:06;;;;;;;9.07;2.53;;;;;;;;;;4997846;28;20476;-76
2021/06/13 06:07:32;;;;;;;8.25;2.17;;;;;;;;;;4997886;28;20041;-76
2021/06/13 06:09:57;;;;;;;8.68;2.40;;;;;;;;;;4997754;28;20065;-76
2021/06/13 06:12:23;;;;;;;6.85;2.47;;;;;;;;;;4997408;28;20041;-76
2021/06/13 06:14:48;;;;;;;5.13;2.53;;;;;;;;;;5013637;28;20068;-76
2021/06/13 06:17:14;;;;;;;6.18;2.30;;;;;;;;;;5014008;28;20026;-76
2021/06/13 06:19:39;;;;;;;4.53;2.13;;;;;;;;;;5017458;28;20033;-76
2021/06/13 06:22:05;;;;;;;5.78;3.15;;;;;;;;;;5017562;28;20041;-76
2021/06/13 06:24:30;;;;;;;7.72;2.58;;;;;;;;;;5017384;28;20079;-76
2021/06/13 06:26:56;;;;;;;7.35;2.20;;;;;;;;;;5017335;28;20502;-76
2021/06/13 06:29:22;;;;;;;4.55;2.47;;;;;;;;;;5001738;28;20361;-76
2021/06/13 06:31:47;;;;;;;4.22;1.80;;;;;;;;;;5000490;28;20104;-76
2021/06/13 06:34:14;;;;;;;6.20;2.15;;;;;;;;;;5017300;28;20076;-76
2021/06/13 06:36:39;;;;;;;6.22;2.63;;;;;;;;;;5017369;28;20021;-76
2021/06/13 06:39:05;;;;;;;6.20;3.00;;;;;;;;;;5016579;28;20475;-76
2021/06/13 06:41:30;;;;;;;5.93;2.15;;;;;;;;;;5017181;28;20033;-76
2021/06/13 06:43:56;;;;;;;4.78;2.00;;;;;;;;;;5000835;28;20030;-76
2021/06/13 06:46:21;;;;;;;6.60;2.28;;;;;;;;;;5016374;28;20030;-76
2021/06/13 06:48:47;;;;;;;6.32;2.50;;;;;;;;;;5033097;28;20108;-76
2021/06/13 06:51:12;;;;;;;5.57;2.25;;;;;;;;;;5016970;28;20026;-76
2021/06/13 06:53:40;;;;;;;5.50;2.53;;;;;;;;;;5000245;28;20035;-75
2021/06/13 06:56:06;;;;;;;4.28;2.13;;;;;;;;;;5016818;28;20419;-76
2021/06/13 06:58:32;;;;;;;3.97;1.92;;;;;;;;;;5000255;28;20483;-76
2021/06/13 07:00:57;;;;;;;4.30;2.15;;;;;;;;;;5017008;28;20122;-77
2021/06/13 07:03:22;;;;;;;5.50;2.38;;;;;;;;;;5016536;28;20060;-76
2021/06/13 07:05:48;;;;;;;6.63;2.40;;;;;;;;;;5016867;28;20052;-76
2021/06/13 07:08:13;;;;;;;4.32;2.65;;;;;;;;;;5016024;28;20104;-76
2021/06/13 07:10:39;;;;;;;8.13;3.80;;;;;;;;;;5033119;28;20034;-76
2021/06/13 07:13:05;;;;;;;6.95;3.60;;;;;;;;;;5033011;28;20030;-76
2021/06/13 07:15:30;;;;;;;8.48;3.17;;;;;;;;;;5001374;28;20041;-76
2021/06/13 07:17:56;;;;;;;10.02;4.45;;;;;;;;;;5012985;28;20025;-76
2021/06/13 07:20:21;;;;;;;7.60;3.90;;;;;;;;;;5024581;28;20045;-76
2021/06/13 07:22:47;;;;;;;5.82;3.42;;;;;;;;;;5015442;28;20037;-76
2021/06/13 07:25:12;;;;;;;8.45;3.85;;;;;;;;;;4996555;28;20052;-76
2021/06/13 07:27:38;;;;;;;7.00;3.17;;;;;;;;;;5012776;28;20037;-76
2021/06/13 07:30:09;;;;;;;8.68;3.47;;;;;;;;;;5011521;28;20044;-76
2021/06/13 07:32:35;;;;;;;8.43;3.40;;;;;;;;;;5016265;28;20028;-76
2021/06/13 07:35:01;;;;;;;4.93;2.95;;;;;;;;;;5032745;28;20033;-76
2021/06/13 07:37:26;;;;;;;7.05;3.00;;;;;;;;;;5015464;28;20037;-76
2021/06/13 07:39:52;;;;;;;7.82;3.47;;;;;;;;;;5032710;28;20033;-76
2021/06/13 07:42:17;;;;;;;11.30;4.40;;;;;;;;;;5000176;28;20034;-77
2021/06/13 07:44:43;;;;;;;6.43;3.17;;;;;;;;;;4996950;28;20025;-76
2021/06/13 07:47:08;;;;;;;8.45;3.22;;;;;;;;;;5032451;28;20087;-76
2021/06/13 07:49:34;;;;;;;6.60;2.90;;;;;;;;;;5015959;28;20029;-76
2021/06/13 07:51:59;;;;;;;7.63;3.83;;;;;;;;;;5006276;28;20037;-77
2021/06/13 07:54:26;;;;;;;7.82;3.60;;;;;;;;;;5015878;28;20128;-77
2021/06/13 07:56:54;;;;;;;8.98;3.33;;;;;;;;;;5032229;28;20037;-76
2021/06/13 07:59:19;;;;;;;7.80;3.00;;;;;;;;;;5032420;28;20518;-77
2021/06/13 08:01:45;;;;;;;7.35;3.10;;;;;;;;;;5015165;28;20408;-76
2021/06/13 08:04:11;;;;;;;4.95;3.10;;;;;;;;;;5012434;28;20047;-77
2021/06/13 08:06:37;;;;;;;7.55;3.30;;;;;;;;;;5006403;28;20033;-76
2021/06/13 08:09:02;;;;;;;5.47;3.28;;;;;;;;;;5015952;28;20040;-76
2021/06/13 08:11:29;;;;;;;5.85;3.22;;;;;;;;;;4999507;28;20104;-76
2021/06/13 08:13:54;;;;;;;7.35;3.20;;;;;;;;;;5015387;28;20030;-76
2021/06/13 08:16:20;;;;;;;6.65;3.10;;;;;;;;;;5015362;28;20034;-76
2021/06/13 08:18:45;;;;;;;6.28;2.95;;;;;;;;;;5015799;28;20059;-76
2021/06/13 08:21:11;;;;;;;5.93;2.97;;;;;;;;;;5011486;28;20116;-76
2021/06/13 08:23:36;;;;;;;8.20;3.33;;;;;;;;;;4996281;28;20112;-76
2021/06/13 08:26:02;;;;;;;5.97;3.05;;;;;;;;;;5012370;28;20042;-76
2021/06/13 08:28:28;;;;;;;6.90;3.03;;;;;;;;;;5028565;28;20026;-76
2021/06/13 08:30:53;;;;;;;8.48;3.17;;;;;;;;;;4995760;28;20045;-76
2021/06/13 08:33:18;;;;;;;8.88;2.92;;;;;;;;;;5011978;28;20403;-76
2021/06/13 08:35:44;;;;;;;8.25;3.50;;;;;;;;;;5011494;28;20050;-75
2021/06/13 08:38:10;;;;;;;7.20;2.72;;;;;;;;;;5011991;28;20034;-76
2021/06/13 08:40:35;;;;;;;8.18;3.85;;;;;;;;;;4995100;28;20033;-76
2021/06/13 08:43:01;;;;;;;7.00;3.72;;;;;;;;;;5025987;28;20478;-76
2021/06/13 08:45:28;;;;;;;8.30;3.53;;;;;;;;;;5030179;28;20085;-76
2021/06/13 08:47:54;;;;;;;6.32;3.22;;;;;;;;;;5012080;28;20022;-76
2021/06/13 08:50:20;;;;;;;8.57;3.78;;;;;;;;;;5011678;28;20037;-76
2021/06/13 08:52:49;;;;;;;6.72;2.90;;;;;;;;;;5014451;28;20095;-76
2021/06/13 08:55:15;;;;;;;6.03;2.70;;;;;;;;;;5030935;28;20410;-76
2021/06/13 08:57:40;;;;;;;7.18;3.58;;;;;;;;;;5014411;28;20032;-76
2021/06/13 09:00:10;;;;;;;8.00;3.47;;;;;;;;;;5011497;28;20060;-76
2021/06/13 09:02:36;;;;;;;5.32;2.85;;;;;;;;;;4979259;28;20045;-75
2021/06/13 09:05:02;;;;;;;5.70;3.28;;;;;;;;;;4994412;28;20584;-76
2021/06/13 09:07:28;;;;;;;9.30;4.05;;;;;;;;;;4995182;28;20034;-76
2021/06/13 09:09:54;;;;;;;8.40;4.10;;;;;;;;;;4995172;28;20044;-76
2021/06/13 09:12:20;;;;;;;5.93;2.90;;;;;;;;;;4979623;28;20052;-76
2021/06/13 09:14:47;;;;;;;8.13;3.38;;;;;;;;;;5013509;28;20446;-76
2021/06/13 09:17:21;;;;;;;6.18;3.53;;;;;;;;;;4981915;28;20371;-76
2021/06/13 09:20:01;;;;;;;7.07;2.55;;;;;;;;;;5013514;28;20045;-76
2021/06/13 09:22:27;;;;;;;6.30;3.10;;;;;;;;;;5031811;28;20065;-76
2021/06/13 09:25:06;;;;;;;7.22;3.00;;;;;;;;;;5014249;28;20126;-76
2021/06/13 09:27:31;;;;;;;7.22;3.30;;;;;;;;;;5014087;28;20497;-76
2021/06/13 09:29:57;;;;;;;7.57;3.22;;;;;;;;;;5013651;28;20033;-76
2021/06/13 09:32:22;;;;;;;8.02;3.20;;;;;;;;;;5014274;28;20033;-76
2021/06/13 09:35:23;;;;;;;8.95;3.63;;;;;;;;;;5013581;28;20045;-76
2021/06/13 09:38:07;;;;;;;7.22;3.22;;;;;;;;;;5030384;28;20037;-76
2021/06/13 09:40:33;;;;;;;8.90;2.95;;;;;;;;;;5030399;28;20044;-76
2021/06/13 09:43:09;;;;;;;9.60;3.72;;;;;;;;;;5030436;28;20025;-76
2021/06/13 09:45:35;;;;;;;10.93;3.47;;;;;;;;;;5015341;28;20034;-76
2021/06/13 09:48:01;;;;;;;7.47;3.50;;;;;;;;;;5017866;28;20064;-76
2021/06/13 09:50:37;;;;;;;8.20;3.78;;;;;;;;;;5013518;28;20037;-76
2021/06/13 09:53:18;;;;;;;6.65;3.13;;;;;;;;;;5012943;28;20114;-76
2021/06/13 09:55:44;;;;;;;7.18;3.17;;;;;;;;;;5046996;28;20033;-76
2021/06/13 09:58:11;;;;;;;7.57;3.13;;;;;;;;;;4996146;28;20438;-76
2021/06/13 10:00:36;;;;;;;10.77;3.78;;;;;;;;;;5014205;28;20621;-76
2021/06/13 10:03:19;;;;;;;11.25;4.22;;;;;;;;;;5013386;28;20041;-76
2021/06/13 10:06:11;;;;;;;8.18;3.67;;;;;;;;;;5028597;28;20463;-76
2021/06/13 10:08:37;;;;;;;6.80;3.20;;;;;;;;;;5011056;28;20045;-76
2021/06/13 10:11:03;;;;;;;9.65;3.72;;;;;;;;;;4997370;28;20041;-76
2021/06/13 10:13:44;;;;;;;6.50;3.20;;;;;;;;;;5013187;28;20029;-76
2021/06/13 10:16:20;;;;;;;7.95;4.00;;;;;;;;;;5045858;28;20040;-76
2021/06/13 10:19:08;;;;;;;10.70;4.53;;;;;;;;;;5013988;28;20499;-76
2021/06/13 10:21:38;;;;;;;11.57;3.95;;;;;;;;;;5030101;28;20040;-76
2021/06/13 10:24:06;;;;;;;7.75;3.55;;;;;;;;;;5029704;28;20057;-76
2021/06/13 10:26:33;;;;;;;9.23;4.03;;;;;;;;;;5013429;28;20055;-76
2021/06/13 10:28:58;;;;;;;12.57;5.88;;;;;;;;;;4997056;28;20053;-76
2021/06/13 10:31:24;;;;;;;12.73;7.07;;;;;;;;;;5013108;28;20083;-76
2021/06/13 10:33:50;;;;;;;10.07;5.35;;;;;;;;;;5014124;28;20045;-76
2021/06/13 10:36:16;;;;;;;12.13;5.00;;;;;;;;;;5013410;28;20037;-76
2021/06/13 10:38:48;;;;;;;9.38;4.90;;;;;;;;;;5016254;28;20116;-76
2021/06/13 10:41:13;;;;;;;;;;;;;;;;;;5030810;28;20040;-76
2021/06/13 10:43:39;;;;;;;8.52;3.75;;;;;;;;;;5030649;28;20260;-76
2021/06/13 10:46:11;;;;;;;10.00;4.20;;;;;;;;;;5010912;28;20067;-76
2021/06/13 10:48:51;;;;;;;5.93;3.53;;;;;;;;;;5027801;28;20037;-76
2021/06/13 10:51:29;;;;;;;7.63;3.63;;;;;;;;;;5013903;28;20887;-76
2021/06/13 10:54:21;;;;;;;10.57;3.72;;;;;;;;;;5029797;28;20037;-76
2021/06/13 10:56:50;;;;;;;8.18;3.30;;;;;;;;;;5028051;28;20038;-76
2021/06/13 10:59:17;;;;;;;8.52;4.40;;;;;;;;;;5013291;28;20108;-76
2021/06/13 11:02:10;;;;;;;8.20;3.88;;;;;;;;;;4997151;28;20025;-75
2021/06/13 11:04:51;;;;;;;8.50;3.65;;;;;;;;;;5002304;28;20484;-76
2021/06/13 11:07:25;;;;;;;9.50;3.92;;;;;;;;;;5034263;28;20043;-76
2021/06/13 11:12:43;;;;;;;7.78;3.80;;;;;;;;;;5034585;28;20061;-75
2021/06/13 11:15:09;;;;;;;6.35;3.53;;;;;;;;;;5023265;28;20033;-76
2021/06/13 11:17:56;;;;;;;8.18;3.28;;;;;;;;;;5013064;28;20494;-77
2021/06/13 11:20:32;;;;;;;8.27;3.85;;;;;;;;;;5038055;28;20048;-76
2021/06/13 11:23:05;;;;;;;9.55;4.00;;;;;;;;;;5049515;28;20037;-76
2021/06/13 11:25:31;;;;;;;6.53;3.70;;;;;;;;;;5016951;28;20030;-76
2021/06/13 11:28:12;;;;;;;13.38;4.03;;;;;;;;;;5015896;28;20036;-76
2021/06/13 11:30:41;;;;;;;9.07;3.50;;;;;;;;;;5048630;28;20056;-76
2021/06/13 11:33:07;;;;;;;8.00;3.50;;;;;;;;;;5016784;28;20080;-76
2021/06/13 11:35:34;;;;;;;8.43;3.78;;;;;;;;;;5016119;28;20072;-76
2021/06/13 11:38:09;;;;;;;14.10;5.05;;;;;;;;;;5016271;28;20052;-76
2021/06/13 11:41:03;;;;;;;11.50;3.78;;;;;;;;;;5033682;28;20462;-76
2021/06/13 11:43:40;;;;;;;9.00;4.88;;;;;;;;;;5012971;28;20025;-76
2021/06/13 11:46:06;;;;;;;8.48;4.00;;;;;;;;;;5030135;28;20044;-76
2021/06/13 11:48:33;;;;;;;9.15;3.60;;;;;;;;;;5015688;28;20034;-76
2021/06/13 11:51:19;;;;;;;8.45;4.05;;;;;;;;;;5015870;28;20025;-76
2021/06/13 11:54:06;;;;;;;8.10;3.40;;;;;;;;;;5031760;28;20068;-76
2021/06/13 11:56:32;;;;;;;8.63;3.25;;;;;;;;;;5032091;28;20124;-76
2021/06/13 11:59:10;;;;;;;6.80;3.30;;;;;;;;;;5048304;28;20112;-76
2021/06/13 12:01:37;;;;;;;8.70;3.42;;;;;;;;;;5015301;28;20033;-76
2021/06/13 12:04:07;;;;;;;6.18;3.08;;;;;;;;;;4999444;28;20042;-76
2021/06/13 12:06:34;;;;;;;7.85;3.63;;;;;;;;;;5015066;28;20025;-76
2021/06/13 12:09:00;;;;;;;9.95;3.58;;;;;;;;;;5014890;28;20033;-75
2021/06/13 12:11:40;;;;;;;8.43;3.58;;;;;;;;;;5015758;28;20064;-76
2021/06/13 12:14:18;;;;;;;8.07;3.35;;;;;;;;;;5014926;28;20033;-76
2021/06/13 12:16:44;;;;;;;7.95;3.35;;;;;;;;;;5011605;28;20095;-76
2021/06/13 12:19:10;;;;;;;11.82;5.20;;;;;;;;;;4995885;28;20030;-76
2021/06/13 12:21:35;;;;;;;8.13;4.20;;;;;;;;;;5011801;28;20387;-76
2021/06/13 12:29:54;;;;;;;7.45;3.92;;;;;;;;;;5010544;28;20042;-76
2021/06/13 12:32:20;;;;;;;6.07;3.33;;;;;;;;;;4992140;28;20096;-75
2021/06/13 12:34:49;;;;;;;5.93;3.20;;;;;;;;;;5014380;28;20022;-76
2021/06/13 12:37:22;;;;;;;11.43;4.00;;;;;;;;;;5015370;28;20025;-75
2021/06/13 12:40:07;;;;;;;9.02;3.78;;;;;;;;;;5015288;28;20033;-76
2021/06/13 12:42:33;;;;;;;8.13;3.70;;;;;;;;;;4998842;28;20037;-76
2021/06/13 12:45:06;;;;;;;9.25;4.00;;;;;;;;;;5013990;28;20061;-76
2021/06/13 12:47:32;;;;;;;7.25;3.50;;;;;;;;;;5031629;28;20053;-76
2021/06/13 12:49:59;;;;;;;8.18;3.58;;;;;;;;;;5010906;28;20574;-76
2021/06/13 12:52:25;;;;;;;6.38;3.13;;;;;;;;;;5026939;28;20041;-76
2021/06/13 12:54:56;;;;;;;6.80;4.53;;;;;;;;;;4998382;28;20044;-76
2021/06/13 12:57:21;;;;;;;9.70;4.22;;;;;;;;;;4997583;28;20498;-76
2021/06/13 12:59:47;;;;;;;8.13;3.60;;;;;;;;;;5013859;28;20033;-76
2021/06/13 13:02:14;;;;;;;6.80;4.28;;;;;;;;;;5014530;28;20045;-76
2021/06/13 13:04:50;;;;;;;9.27;3.97;;;;;;;;;;5014061;28;20569;-77
2021/06/13 13:07:35;;;;;;;8.73;3.10;;;;;;;;;;4998239;28;20512;-76
2021/06/13 13:10:13;;;;;;;9.07;3.85;;;;;;;;;;5015052;28;20112;-75
2021/06/13 13:12:52;;;;;;;7.53;3.58;;;;;;;;;;5028839;28;20079;-75
2021/06/13 13:15:22;;;;;;;6.03;3.15;;;;;;;;;;5012051;28;20480;-75
2021/06/13 13:17:48;;;;;;;7.93;3.20;;;;;;;;;;5035387;28;20483;-75
2021/06/13 13:20:33;;;;;;;9.20;4.00;;;;;;;;;;5014073;28;20067;-75
2021/06/13 13:23:10;;;;;;;10.00;3.63;;;;;;;;;;5014874;28;20029;-75
2021/06/13 13:25:41;;;;;;;9.57;4.03;;;;;;;;;;5014759;28;20094;-75
2021/06/13 13:28:28;;;;;;;8.32;3.08;;;;;;;;;;5029433;28;20433;-75
2021/06/13 13:30:56;;;;;;;13.38;6.13;;;;;;;;;;5030165;28;20091;-75
2021/06/13 13:33:35;;;;;;;13.73;7.32;;;;;;;;;;5014103;28;20116;-75
2021/06/13 13:36:06;;;;;;;7.97;4.57;;;;;;;;;;4998403;28;20043;-75
2021/06/13 13:38:45;;;;;;;11.02;3.85;;;;;;;;;;4997889;28;20021;-75
2021/06/13 13:41:15;;;;;;;8.77;3.80;;;;;;;;;;4998346;28;20635;-75
2021/06/13 13:44:00;;;;;;;9.55;4.10;;;;;;;;;;5013940;28;20033;-75
2021/06/13 13:46:36;;;;;;;12.13;3.42;;;;;;;;;;5034972;28;20021;-75
2021/06/13 13:49:02;;;;;;;7.30;3.15;;;;;;;;;;5035671;28;20037;-75
2021/06/13 13:51:28;;;;;;;11.57;3.72;;;;;;;;;;5013935;28;20029;-75
2021/06/13 13:53:54;;;;;;;7.85;4.25;;;;;;;;;;5013603;28;20380;-75
2021/06/13 13:56:21;;;;;;;8.02;3.53;;;;;;;;;;5011874;28;20041;-75
2021/06/13 13:58:50;;;;;;;10.00;4.40;;;;;;;;;;5029279;28;20207;-75
2021/06/13 14:01:16;;;;;;;7.53;3.20;;;;;;;;;;5013650;28;20159;-75
2021/06/13 14:03:42;;;;;;;7.68;3.28;;;;;;;;;;5013322;28;20132;-75
2021/06/13 14:06:07;;;;;;;4.97;2.85;;;;;;;;;;5013462;28;20479;-75
2021/06/13 14:08:40;;;;;;;9.73;3.45;;;;;;;;;;4997315;28;20036;-75
2021/06/13 14:11:06;;;;;;;5.57;3.03;;;;;;;;;;5013295;28;20034;-75
2021/06/13 14:13:31;;;;;;;7.70;3.53;;;;;;;;;;4997115;28;20057;-75
2021/06/13 14:15:57;;;;;;;8.68;3.40;;;;;;;;;;4995280;28;20484;-75
2021/06/13 14:18:22;;;;;;;7.85;3.58;;;;;;;;;;5012701;28;20037;-75
2021/06/13 14:20:48;;;;;;;7.60;3.08;;;;;;;;;;5012906;28;20037;-75
2021/06/13 14:23:13;;;;;;;8.63;2.88;;;;;;;;;;5013202;28;20045;-75
2021/06/13 14:25:39;;;;;;;7.93;3.35;;;;;;;;;;5013039;28;20057;-75
2021/06/13 14:28:08;;;;;;;6.50;2.88;;;;;;;;;;5012789;28;20072;-75
2021/06/13 14:30:33;;;;;;;6.60;3.00;;;;;;;;;;5013237;28;20025;-75
2021/06/13 14:32:59;;;;;;;7.38;3.50;;;;;;;;;;5012982;28;20510;-75
2021/06/13 14:35:24;;;;;;;10.20;3.47;;;;;;;;;;5012517;28;20042;-75
2021/06/13 14:37:50;;;;;;;7.13;3.15;;;;;;;;;;5012693;28;20026;-75
2021/06/13 14:40:16;;;;;;;6.45;2.70;;;;;;;;;;5015781;28;20051;-75
2021/06/13 14:42:42;;;;;;;9.07;2.60;;;;;;;;;;5000646;28;20042;-75
2021/06/13 14:45:08;;;;;;;6.22;3.13;;;;;;;;;;5033582;28;20095;-75
2021/06/13 14:47:33;;;;;;;5.00;3.22;;;;;;;;;;5017198;28;20057;-75
2021/06/13 14:49:59;;;;;;;7.35;2.60;;;;;;;;;;5016699;28;20454;-75
2021/06/13 14:52:25;;;;;;;6.45;2.80;;;;;;;;;;5004473;28;20065;-75
2021/06/13 14:54:50;;;;;;;6.78;3.13;;;;;;;;;;5013213;28;20041;-75
2021/06/13 14:57:16;;;;;;;6.55;2.67;;;;;;;;;;5029662;28;20040;-75
2021/06/13 14:59:41;;;;;;;5.70;3.15;;;;;;;;;;4997295;28;20034;-75